sensor_id;sensor_type;location;lat;lon;timestamp;P1;durP1;ratioP1;P2;durP2;ratioP2
58982;SDS011;44771;49.982;8.560;2023-07-20T00:02:42;1999.90;;;999.90;;
58982;SDS011;44771;49.982;8.560;2023-07-20T00:07:45;1999.90;;;999.90;;
58982;SDS011;44771;49.982;8.560;2023-07-20T00:12:47;1999.90;;;999.90;;
58982;SDS011;44771;49.982;8.560;2023-07-20T00:17:48;1999.90;;;999.90;;
58982;SDS011;44771;49.982;8.560;2023-07-20T00:22:52;1999.90;;;999.90;;
58982;SDS011;44771;49.982;8.560;2023-07-20T00:27:53;1999.90;;;999.90;;
58982;SDS011;44771;49.982;8.560;2023-07-20T00:32:55;1999.90;;;999.90;;
58982;SDS011;44771;49.982;8.560;2023-07-20T00:37:58;1999.90;;;999.90;;
58982;SDS011;44771;49.982;8.560;2023-07-20T00:43:00;1999.90;;;999.90;;
58982;SDS011;44771;49.982;8.560;2023-07-20T00:48:02;1999.90;;;999.90;;
58982;SDS011;44771;49.982;8.560;2023-07-20T00:53:08;1999.90;;;999.90;;
58982;SDS011;44771;49.982;8.560;2023-07-20T00:58:10;1999.90;;;999.90;;
58982;SDS011;44771;49.982;8.560;2023-07-20T01:03:11;1999.90;;;999.90;;
58982;SDS011;44771;49.982;8.560;2023-07-20T01:08:17;1999.90;;;999.90;;
58982;SDS011;44771;49.982;8.560;2023-07-20T01:13:28;1999.90;;;999.90;;
58982;SDS011;44771;49.982;8.560;2023-07-20T01:18:31;1999.90;;;999.90;;
58982;SDS011;44771;49.982;8.560;2023-07-20T01:23:49;1999.90;;;999.90;;
58982;SDS011;44771;49.982;8.560;2023-07-20T01:29:28;1999.90;;;999.90;;
58982;SDS011;44771;49.982;8.560;2023-07-20T01:34:45;1999.90;;;999.90;;
58982;SDS011;44771;49.982;8.560;2023-07-20T01:39:50;1999.90;;;999.90;;
58982;SDS011;44771;49.982;8.560;2023-07-20T01:44:53;1999.90;;;999.90;;
58982;SDS011;44771;49.982;8.560;2023-07-20T01:49:56;1999.90;;;999.90;;
58982;SDS011;44771;49.982;8.560;2023-07-20T01:54:58;1999.90;;;999.90;;
58982;SDS011;44771;49.982;8.560;2023-07-20T02:00:00;1999.90;;;999.90;;
58982;SDS011;44771;49.982;8.560;2023-07-20T02:05:03;1999.90;;;999.90;;
58982;SDS011;44771;49.982;8.560;2023-07-20T02:10:05;1999.90;;;999.90;;
58982;SDS011;44771;49.982;8.560;2023-07-20T02:15:08;1999.90;;;999.90;;
58982;SDS011;44771;49.982;8.560;2023-07-20T02:20:12;1999.90;;;999.90;;
58982;SDS011;44771;49.982;8.560;2023-07-20T02:25:14;1999.90;;;999.90;;
58982;SDS011;44771;49.982;8.560;2023-07-20T02:30:16;1999.90;;;999.90;;
58982;SDS011;44771;49.982;8.560;2023-07-20T02:35:19;1999.90;;;999.90;;
58982;SDS011;44771;49.982;8.560;2023-07-20T02:40:21;1999.90;;;999.90;;
58982;SDS011;44771;49.982;8.560;2023-07-20T02:45:22;1999.90;;;999.90;;
58982;SDS011;44771;49.982;8.560;2023-07-20T02:50:26;1177.57;;;549.75;;
58982;SDS011;44771;49.982;8.560;2023-07-20T02:55:27;1999.90;;;999.90;;
58982;SDS011;44771;49.982;8.560;2023-07-20T03:00:29;1999.90;;;999.90;;
58982;SDS011;44771;49.982;8.560;2023-07-20T03:05:32;1999.90;;;999.90;;
58982;SDS011;44771;49.982;8.560;2023-07-20T03:10:38;1519.47;;;758.03;;
58982;SDS011;44771;49.982;8.560;2023-07-20T03:15:40;1999.90;;;999.90;;
58982;SDS011;44771;49.982;8.560;2023-07-20T03:20:43;1999.90;;;999.90;;
58982;SDS011;44771;49.982;8.560;2023-07-20T03:25:45;1999.90;;;999.90;;
58982;SDS011;44771;49.982;8.560;2023-07-20T03:30:46;1999.90;;;999.90;;
58982;SDS011;44771;49.982;8.560;2023-07-20T03:35:56;1999.90;;;999.90;;
58982;SDS011;44771;49.982;8.560;2023-07-20T03:40:58;1999.90;;;999.90;;
58982;SDS011;44771;49.982;8.560;2023-07-20T03:46:01;1999.90;;;999.90;;
58982;SDS011;44771;49.982;8.560;2023-07-20T03:51:04;1999.90;;;999.90;;
58982;SDS011;44771;49.982;8.560;2023-07-20T03:56:06;1999.90;;;999.90;;
58982;SDS011;44771;49.982;8.560;2023-07-20T04:01:07;1999.90;;;999.90;;
58982;SDS011;44771;49.982;8.560;2023-07-20T04:06:10;1999.90;;;999.90;;
58982;SDS011;44771;49.982;8.560;2023-07-20T04:11:12;0.20;;;0.20;;
58982;SDS011;44771;49.982;8.560;2023-07-20T04:16:14;9.88;;;9.45;;
58982;SDS011;44771;49.982;8.560;2023-07-20T04:21:17;1999.90;;;999.90;;
58982;SDS011;44771;49.982;8.560;2023-07-20T04:26:19;35.15;;;32.47;;
58982;SDS011;44771;49.982;8.560;2023-07-20T04:31:21;1999.90;;;999.90;;
58982;SDS011;44771;49.982;8.560;2023-07-20T04:36:24;1999.90;;;999.90;;
58982;SDS011;44771;49.982;8.560;2023-07-20T04:41:26;1999.90;;;999.90;;
58982;SDS011;44771;49.982;8.560;2023-07-20T04:46:28;1999.90;;;999.90;;
58982;SDS011;44771;49.982;8.560;2023-07-20T04:51:31;1999.90;;;999.90;;
58982;SDS011;44771;49.982;8.560;2023-07-20T04:56:33;1999.90;;;999.90;;
58982;SDS011;44771;49.982;8.560;2023-07-20T05:01:35;1999.90;;;999.90;;
58982;SDS011;44771;49.982;8.560;2023-07-20T05:06:38;1999.90;;;999.90;;
58982;SDS011;44771;49.982;8.560;2023-07-20T05:11:40;1999.90;;;999.90;;
58982;SDS011;44771;49.982;8.560;2023-07-20T05:16:41;1999.90;;;999.90;;
58982;SDS011;44771;49.982;8.560;2023-07-20T05:21:45;1999.90;;;999.90;;
58982;SDS011;44771;49.982;8.560;2023-07-20T05:26:47;1999.90;;;999.90;;
58982;SDS011;44771;49.982;8.560;2023-07-20T05:31:49;1999.90;;;999.90;;
58982;SDS011;44771;49.982;8.560;2023-07-20T05:36:52;1999.90;;;999.90;;
58982;SDS011;44771;49.982;8.560;2023-07-20T05:41:54;1999.90;;;999.90;;
58982;SDS011;44771;49.982;8.560;2023-07-20T05:46:56;1999.90;;;999.90;;
58982;SDS011;44771;49.982;8.560;2023-07-20T05:52:00;1999.90;;;999.90;;
58982;SDS011;44771;49.982;8.560;2023-07-20T05:57:02;1999.90;;;999.90;;
58982;SDS011;44771;49.982;8.560;2023-07-20T06:02:04;1999.90;;;999.90;;
58982;SDS011;44771;49.982;8.560;2023-07-20T06:07:07;1999.90;;;999.90;;
58982;SDS011;44771;49.982;8.560;2023-07-20T06:17:26;1999.90;;;999.90;;
58982;SDS011;44771;49.982;8.560;2023-07-20T06:22:32;690.72;;;355.58;;
58982;SDS011;44771;49.982;8.560;2023-07-20T06:27:43;1999.90;;;999.90;;
58982;SDS011;44771;49.982;8.560;2023-07-20T06:32:45;1999.90;;;999.90;;
58982;SDS011;44771;49.982;8.560;2023-07-20T06:37:48;1999.90;;;999.90;;
58982;SDS011;44771;49.982;8.560;2023-07-20T06:42:52;1999.90;;;999.90;;
58982;SDS011;44771;49.982;8.560;2023-07-20T06:48:01;1999.90;;;999.90;;
58982;SDS011;44771;49.982;8.560;2023-07-20T06:53:04;1999.90;;;999.90;;
58982;SDS011;44771;49.982;8.560;2023-07-20T06:58:16;1999.90;;;999.90;;
58982;SDS011;44771;49.982;8.560;2023-07-20T07:03:21;1999.90;;;999.90;;
58982;SDS011;44771;49.982;8.560;2023-07-20T07:08:30;1999.90;;;999.90;;
58982;SDS011;44771;49.982;8.560;2023-07-20T07:13:35;1999.90;;;999.90;;
58982;SDS011;44771;49.982;8.560;2023-07-20T07:18:37;1999.90;;;999.90;;
58982;SDS011;44771;49.982;8.560;2023-07-20T07:23:40;1999.90;;;999.90;;
58982;SDS011;44771;49.982;8.560;2023-07-20T07:28:42;1999.90;;;999.90;;
58982;SDS011;44771;49.982;8.560;2023-07-20T07:33:47;1999.90;;;999.90;;
58982;SDS011;44771;49.982;8.560;2023-07-20T07:38:50;1999.90;;;999.90;;
58982;SDS011;44771;49.982;8.560;2023-07-20T07:44:12;1999.90;;;999.90;;
58982;SDS011;44771;49.982;8.560;2023-07-20T07:49:14;1999.90;;;999.90;;
58982;SDS011;44771;49.982;8.560;2023-07-20T07:54:17;1999.90;;;999.90;;
58982;SDS011;44771;49.982;8.560;2023-07-20T07:59:19;1999.90;;;999.90;;
58982;SDS011;44771;49.982;8.560;2023-07-20T08:04:21;1999.90;;;999.90;;
58982;SDS011;44771;49.982;8.560;2023-07-20T08:09:24;1999.90;;;999.90;;
58982;SDS011;44771;49.982;8.560;2023-07-20T08:14:26;1999.90;;;999.90;;
58982;SDS011;44771;49.982;8.560;2023-07-20T08:19:28;14.75;;;13.85;;
58982;SDS011;44771;49.982;8.560;2023-07-20T08:24:31;8.20;;;7.75;;
58982;SDS011;44771;49.982;8.560;2023-07-20T08:29:33;7.15;;;6.65;;
58982;SDS011;44771;49.982;8.560;2023-07-20T08:34:35;6.57;;;6.07;;
58982;SDS011;44771;49.982;8.560;2023-07-20T08:39:38;6.32;;;5.80;;
58982;SDS011;44771;49.982;8.560;2023-07-20T08:44:40;0.20;;;0.20;;
58982;SDS011;44771;49.982;8.560;2023-07-20T08:49:43;0.20;;;0.20;;
58982;SDS011;44771;49.982;8.560;2023-07-20T08:54:50;0.10;;;0.10;;
58982;SDS011;44771;49.982;8.560;2023-07-20T08:59:53;0.20;;;0.20;;
58982;SDS011;44771;49.982;8.560;2023-07-20T09:04:56;0.10;;;0.10;;
58982;SDS011;44771;49.982;8.560;2023-07-20T09:09:59;0.20;;;0.20;;
58982;SDS011;44771;49.982;8.560;2023-07-20T09:15:01;0.20;;;0.20;;
58982;SDS011;44771;49.982;8.560;2023-07-20T09:20:03;0.15;;;0.15;;
58982;SDS011;44771;49.982;8.560;2023-07-20T09:25:08;0.68;;;0.68;;
58982;SDS011;44771;49.982;8.560;2023-07-20T09:30:13;1.02;;;1.02;;
58982;SDS011;44771;49.982;8.560;2023-07-20T09:35:31;0.40;;;0.40;;
58982;SDS011;44771;49.982;8.560;2023-07-20T09:40:44;0.20;;;0.20;;
58982;SDS011;44771;49.982;8.560;2023-07-20T09:45:49;0.20;;;0.20;;
58982;SDS011;44771;49.982;8.560;2023-07-20T09:50:55;0.25;;;0.25;;
58982;SDS011;44771;49.982;8.560;2023-07-20T09:55:59;0.73;;;0.73;;
58982;SDS011;44771;49.982;8.560;2023-07-20T10:01:01;0.20;;;0.20;;
58982;SDS011;44771;49.982;8.560;2023-07-20T10:06:08;0.28;;;0.28;;
58982;SDS011;44771;49.982;8.560;2023-07-20T10:11:13;0.20;;;0.20;;
58982;SDS011;44771;49.982;8.560;2023-07-20T10:16:19;0.20;;;0.20;;
58982;SDS011;44771;49.982;8.560;2023-07-20T10:21:26;0.20;;;0.20;;
58982;SDS011;44771;49.982;8.560;2023-07-20T10:26:34;0.20;;;0.20;;
58982;SDS011;44771;49.982;8.560;2023-07-20T10:31:39;0.20;;;0.20;;
58982;SDS011;44771;49.982;8.560;2023-07-20T10:36:44;0.20;;;0.20;;
58982;SDS011;44771;49.982;8.560;2023-07-20T10:41:48;0.20;;;0.20;;
58982;SDS011;44771;49.982;8.560;2023-07-20T10:46:50;0.47;;;0.47;;
58982;SDS011;44771;49.982;8.560;2023-07-20T10:51:59;0.80;;;0.80;;
58982;SDS011;44771;49.982;8.560;2023-07-20T11:02:37;21.08;;;20.00;;
58982;SDS011;44771;49.982;8.560;2023-07-20T11:07:43;1.10;;;1.10;;
58982;SDS011;44771;49.982;8.560;2023-07-20T11:18:36;47.28;;;12.55;;
58982;SDS011;44771;49.982;8.560;2023-07-20T11:23:39;0.28;;;0.28;;
58982;SDS011;44771;49.982;8.560;2023-07-20T11:28:48;0.20;;;0.20;;
58982;SDS011;44771;49.982;8.560;2023-07-20T11:33:52;0.30;;;0.30;;
58982;SDS011;44771;49.982;8.560;2023-07-20T11:38:54;8.45;;;8.07;;
58982;SDS011;44771;49.982;8.560;2023-07-20T11:43:56;3.78;;;3.67;;
58982;SDS011;44771;49.982;8.560;2023-07-20T11:49:00;0.20;;;0.20;;
58982;SDS011;44771;49.982;8.560;2023-07-20T11:54:03;0.20;;;0.20;;
58982;SDS011;44771;49.982;8.560;2023-07-20T11:59:07;0.25;;;0.25;;
58982;SDS011;44771;49.982;8.560;2023-07-20T12:04:10;3.67;;;3.58;;
58982;SDS011;44771;49.982;8.560;2023-07-20T12:09:13;4.05;;;3.92;;
58982;SDS011;44771;49.982;8.560;2023-07-20T12:14:16;4.53;;;4.32;;
58982;SDS011;44771;49.982;8.560;2023-07-20T12:19:20;0.20;;;0.20;;
58982;SDS011;44771;49.982;8.560;2023-07-20T12:24:26;0.30;;;0.30;;
58982;SDS011;44771;49.982;8.560;2023-07-20T12:29:28;0.20;;;0.20;;
58982;SDS011;44771;49.982;8.560;2023-07-20T12:34:32;0.20;;;0.20;;
58982;SDS011;44771;49.982;8.560;2023-07-20T12:39:34;2.35;;;2.25;;
58982;SDS011;44771;49.982;8.560;2023-07-20T12:44:37;21.67;;;20.27;;
58982;SDS011;44771;49.982;8.560;2023-07-20T12:49:41;46.03;;;42.38;;
58982;SDS011;44771;49.982;8.560;2023-07-20T12:54:42;30.85;;;29.15;;
58982;SDS011;44771;49.982;8.560;2023-07-20T12:59:45;29.08;;;27.58;;
58982;SDS011;44771;49.982;8.560;2023-07-20T13:04:48;27.25;;;25.60;;
58982;SDS011;44771;49.982;8.560;2023-07-20T13:09:50;0.20;;;0.20;;
58982;SDS011;44771;49.982;8.560;2023-07-20T13:14:52;0.30;;;0.30;;
58982;SDS011;44771;49.982;8.560;2023-07-20T13:19:55;0.32;;;0.32;;
58982;SDS011;44771;49.982;8.560;2023-07-20T13:30:22;0.40;;;0.40;;
58982;SDS011;44771;49.982;8.560;2023-07-20T13:35:25;0.32;;;0.32;;
58982;SDS011;44771;49.982;8.560;2023-07-20T13:40:47;0.40;;;0.40;;
58982;SDS011;44771;49.982;8.560;2023-07-20T13:45:49;0.50;;;0.50;;
58982;SDS011;44771;49.982;8.560;2023-07-20T13:50:54;0.40;;;0.40;;
58982;SDS011;44771;49.982;8.560;2023-07-20T13:55:59;1.12;;;1.12;;
58982;SDS011;44771;49.982;8.560;2023-07-20T14:06:07;1.73;;;1.62;;
58982;SDS011;44771;49.982;8.560;2023-07-20T14:11:12;74.05;;;69.87;;
58982;SDS011;44771;49.982;8.560;2023-07-20T14:16:16;48.20;;;45.53;;
58982;SDS011;44771;49.982;8.560;2023-07-20T14:21:21;1999.90;;;999.90;;
58982;SDS011;44771;49.982;8.560;2023-07-20T14:26:26;1999.90;;;999.90;;
58982;SDS011;44771;49.982;8.560;2023-07-20T14:31:29;1999.90;;;999.90;;
58982;SDS011;44771;49.982;8.560;2023-07-20T14:36:37;1999.90;;;999.90;;
58982;SDS011;44771;49.982;8.560;2023-07-20T14:41:39;1999.90;;;999.90;;
58982;SDS011;44771;49.982;8.560;2023-07-20T14:46:41;1999.90;;;999.90;;
58982;SDS011;44771;49.982;8.560;2023-07-20T14:51:53;1999.90;;;999.90;;
58982;SDS011;44771;49.982;8.560;2023-07-20T14:57:00;1999.90;;;999.90;;
58982;SDS011;44771;49.982;8.560;2023-07-20T15:02:02;1999.90;;;999.90;;
58982;SDS011;44771;49.982;8.560;2023-07-20T15:07:05;1999.90;;;999.90;;
58982;SDS011;44771;49.982;8.560;2023-07-20T15:12:08;1999.90;;;999.90;;
58982;SDS011;44771;49.982;8.560;2023-07-20T15:17:10;1999.90;;;999.90;;
58982;SDS011;44771;49.982;8.560;2023-07-20T15:22:13;1999.90;;;999.90;;
58982;SDS011;44771;49.982;8.560;2023-07-20T15:27:15;1999.90;;;999.90;;
58982;SDS011;44771;49.982;8.560;2023-07-20T15:32:19;1999.90;;;999.90;;
58982;SDS011;44771;49.982;8.560;2023-07-20T15:37:22;1999.90;;;999.90;;
58982;SDS011;44771;49.982;8.560;2023-07-20T15:42:24;1999.90;;;999.90;;
58982;SDS011;44771;49.982;8.560;2023-07-20T15:47:38;1999.90;;;999.90;;
58982;SDS011;44771;49.982;8.560;2023-07-20T15:52:41;1999.90;;;999.90;;
58982;SDS011;44771;49.982;8.560;2023-07-20T15:57:43;1999.90;;;999.90;;
58982;SDS011;44771;49.982;8.560;2023-07-20T16:02:45;1999.90;;;999.90;;
58982;SDS011;44771;49.982;8.560;2023-07-20T16:07:48;1999.90;;;999.90;;
58982;SDS011;44771;49.982;8.560;2023-07-20T16:12:50;1999.90;;;999.90;;
58982;SDS011;44771;49.982;8.560;2023-07-20T16:17:53;1999.90;;;999.90;;
58982;SDS011;44771;49.982;8.560;2023-07-20T16:22:56;1999.90;;;999.90;;
58982;SDS011;44771;49.982;8.560;2023-07-20T16:27:58;1999.90;;;999.90;;
58982;SDS011;44771;49.982;8.560;2023-07-20T16:33:00;1999.90;;;999.90;;
58982;SDS011;44771;49.982;8.560;2023-07-20T16:38:05;1999.90;;;999.90;;
58982;SDS011;44771;49.982;8.560;2023-07-20T16:43:10;1999.90;;;999.90;;
58982;SDS011;44771;49.982;8.560;2023-07-20T16:48:12;1999.90;;;999.90;;
58982;SDS011;44771;49.982;8.560;2023-07-20T16:53:27;1999.90;;;999.90;;
58982;SDS011;44771;49.982;8.560;2023-07-20T16:58:42;1999.90;;;999.90;;
58982;SDS011;44771;49.982;8.560;2023-07-20T17:03:44;1999.90;;;999.90;;
58982;SDS011;44771;49.982;8.560;2023-07-20T17:08:48;1999.90;;;999.90;;
58982;SDS011;44771;49.982;8.560;2023-07-20T17:13:50;1999.90;;;999.90;;
58982;SDS011;44771;49.982;8.560;2023-07-20T17:18:51;1999.90;;;999.90;;
58982;SDS011;44771;49.982;8.560;2023-07-20T17:23:54;1999.90;;;999.90;;
58982;SDS011;44771;49.982;8.560;2023-07-20T17:28:59;1999.90;;;999.90;;
58982;SDS011;44771;49.982;8.560;2023-07-20T17:34:01;1999.90;;;999.90;;
58982;SDS011;44771;49.982;8.560;2023-07-20T17:39:05;1999.90;;;999.90;;
58982;SDS011;44771;49.982;8.560;2023-07-20T17:44:06;1999.90;;;999.90;;
58982;SDS011;44771;49.982;8.560;2023-07-20T17:49:08;1999.90;;;999.90;;
58982;SDS011;44771;49.982;8.560;2023-07-20T17:54:11;1999.90;;;999.90;;
58982;SDS011;44771;49.982;8.560;2023-07-20T17:59:13;1999.90;;;999.90;;
58982;SDS011;44771;49.982;8.560;2023-07-20T18:04:15;1999.90;;;999.90;;
58982;SDS011;44771;49.982;8.560;2023-07-20T18:09:18;1999.90;;;999.90;;
58982;SDS011;44771;49.982;8.560;2023-07-20T18:14:21;1999.90;;;999.90;;
58982;SDS011;44771;49.982;8.560;2023-07-20T18:19:22;1999.90;;;999.90;;
58982;SDS011;44771;49.982;8.560;2023-07-20T18:24:26;1999.90;;;999.90;;
58982;SDS011;44771;49.982;8.560;2023-07-20T18:29:27;1999.90;;;999.90;;
58982;SDS011;44771;49.982;8.560;2023-07-20T18:34:30;1999.90;;;999.90;;
58982;SDS011;44771;49.982;8.560;2023-07-20T18:39:33;1999.90;;;999.90;;
58982;SDS011;44771;49.982;8.560;2023-07-20T18:44:41;1999.90;;;999.90;;
58982;SDS011;44771;49.982;8.560;2023-07-20T18:49:46;1999.90;;;999.90;;
58982;SDS011;44771;49.982;8.560;2023-07-20T18:54:49;1999.90;;;999.90;;
58982;SDS011;44771;49.982;8.560;2023-07-20T18:59:51;1999.90;;;999.90;;
58982;SDS011;44771;49.982;8.560;2023-07-20T19:04:53;1999.90;;;999.90;;
58982;SDS011;44771;49.982;8.560;2023-07-20T19:09:56;1999.90;;;999.90;;
58982;SDS011;44771;49.982;8.560;2023-07-20T19:14:58;1999.90;;;999.90;;
58982;SDS011;44771;49.982;8.560;2023-07-20T19:20:00;1999.90;;;999.90;;
58982;SDS011;44771;49.982;8.560;2023-07-20T19:25:04;1999.90;;;999.90;;
58982;SDS011;44771;49.982;8.560;2023-07-20T19:30:07;1999.90;;;999.90;;
58982;SDS011;44771;49.982;8.560;2023-07-20T19:35:09;1999.90;;;999.90;;
58982;SDS011;44771;49.982;8.560;2023-07-20T19:40:12;1999.90;;;999.90;;
58982;SDS011;44771;49.982;8.560;2023-07-20T19:45:14;1999.90;;;999.90;;
58982;SDS011;44771;49.982;8.560;2023-07-20T19:50:16;1999.90;;;999.90;;
58982;SDS011;44771;49.982;8.560;2023-07-20T19:55:19;1999.90;;;999.90;;
58982;SDS011;44771;49.982;8.560;2023-07-20T20:00:21;1088.18;;;530.83;;
58982;SDS011;44771;49.982;8.560;2023-07-20T20:05:43;1999.90;;;999.90;;
58982;SDS011;44771;49.982;8.560;2023-07-20T20:10:46;1999.90;;;999.90;;
58982;SDS011;44771;49.982;8.560;2023-07-20T20:15:51;1999.90;;;999.90;;
58982;SDS011;44771;49.982;8.560;2023-07-20T20:20:54;1999.90;;;999.90;;
58982;SDS011;44771;49.982;8.560;2023-07-20T20:25:59;1999.90;;;999.90;;
58982;SDS011;44771;49.982;8.560;2023-07-20T20:31:00;78.65;;;74.50;;
58982;SDS011;44771;49.982;8.560;2023-07-20T20:36:03;119.87;;;102.62;;
58982;SDS011;44771;49.982;8.560;2023-07-20T20:41:06;438.75;;;129.15;;
58982;SDS011;44771;49.982;8.560;2023-07-20T20:46:08;1999.90;;;999.90;;
58982;SDS011;44771;49.982;8.560;2023-07-20T20:51:10;13.15;;;12.30;;
58982;SDS011;44771;49.982;8.560;2023-07-20T20:56:13;1999.90;;;999.90;;
58982;SDS011;44771;49.982;8.560;2023-07-20T21:01:15;1999.90;;;999.90;;
58982;SDS011;44771;49.982;8.560;2023-07-20T21:06:17;1999.90;;;999.90;;
58982;SDS011;44771;49.982;8.560;2023-07-20T21:11:20;1999.90;;;999.90;;
58982;SDS011;44771;49.982;8.560;2023-07-20T21:16:22;1999.90;;;999.90;;
58982;SDS011;44771;49.982;8.560;2023-07-20T21:21:24;1999.90;;;999.90;;
58982;SDS011;44771;49.982;8.560;2023-07-20T21:26:27;1999.90;;;999.90;;
58982;SDS011;44771;49.982;8.560;2023-07-20T21:31:29;1999.90;;;999.90;;
58982;SDS011;44771;49.982;8.560;2023-07-20T21:36:30;1999.90;;;999.90;;
58982;SDS011;44771;49.982;8.560;2023-07-20T21:41:33;1999.90;;;999.90;;
58982;SDS011;44771;49.982;8.560;2023-07-20T21:46:35;1999.90;;;999.90;;
58982;SDS011;44771;49.982;8.560;2023-07-20T21:51:37;1999.90;;;999.90;;
58982;SDS011;44771;49.982;8.560;2023-07-20T21:56:40;1999.90;;;999.90;;
58982;SDS011;44771;49.982;8.560;2023-07-20T22:01:42;1999.90;;;999.90;;
58982;SDS011;44771;49.982;8.560;2023-07-20T22:07:00;1999.90;;;999.90;;
58982;SDS011;44771;49.982;8.560;2023-07-20T22:12:03;1999.90;;;999.90;;
58982;SDS011;44771;49.982;8.560;2023-07-20T22:17:05;1999.90;;;999.90;;
58982;SDS011;44771;49.982;8.560;2023-07-20T22:22:07;1999.90;;;999.90;;
58982;SDS011;44771;49.982;8.560;2023-07-20T22:27:11;1999.90;;;999.90;;
58982;SDS011;44771;49.982;8.560;2023-07-20T22:32:12;1999.90;;;999.90;;
58982;SDS011;44771;49.982;8.560;2023-07-20T22:37:14;1999.90;;;999.90;;
58982;SDS011;44771;49.982;8.560;2023-07-20T22:42:17;1999.90;;;999.90;;
58982;SDS011;44771;49.982;8.560;2023-07-20T22:47:19;1999.90;;;999.90;;
58982;SDS011;44771;49.982;8.560;2023-07-20T22:52:21;1999.90;;;999.90;;
58982;SDS011;44771;49.982;8.560;2023-07-20T22:57:24;1999.90;;;999.90;;
58982;SDS011;44771;49.982;8.560;2023-07-20T23:02:29;1999.90;;;999.90;;
58982;SDS011;44771;49.982;8.560;2023-07-20T23:12:45;1999.90;;;999.90;;
58982;SDS011;44771;49.982;8.560;2023-07-20T23:18:03;1999.90;;;999.90;;
58982;SDS011;44771;49.982;8.560;2023-07-20T23:23:04;1999.90;;;999.90;;
58982;SDS011;44771;49.982;8.560;2023-07-20T23:28:08;1999.90;;;999.90;;
58982;SDS011;44771;49.982;8.560;2023-07-20T23:33:09;1999.90;;;999.90;;
58982;SDS011;44771;49.982;8.560;2023-07-20T23:38:11;1999.90;;;999.90;;
58982;SDS011;44771;49.982;8.560;2023-07-20T23:43:14;1999.90;;;999.90;;
58982;SDS011;44771;49.982;8.560;2023-07-20T23:48:16;1999.90;;;999.90;;
58982;SDS011;44771;49.982;8.560;2023-07-20T23:53:18;1999.90;;;999.90;;
58982;SDS011;44771;49.982;8.560;2023-07-20T23:58:21;1999.90;;;999.90;;
